Time;durP1;ratioP1;P1;durP2;ratioP2;P2;SDS_P1;SDS_P2;PMS_P1;PMS_P2;Temp;Humidity;BMP_temperature;BMP_pressure;BME280_temperature;BME280_humidity;BME280_pressure;Samples;Min_cycle;Max_cycle;Signal;HPM_P1;HPM_P2
2021/12/14 00:01:21;;;;;;;13.02;8.32;;;8.40;99.90;;;;;;5065827;28;20048;-84
2021/12/14 00:03:49;;;;;;;14.27;8.68;;;8.40;99.90;;;;;;5074986;28;20128;-84
2021/12/14 00:06:17;;;;;;;13.10;7.95;;;8.40;99.90;;;;;;5086739;28;20043;-84
2021/12/14 00:08:55;;;;;;;12.90;8.52;;;8.40;99.90;;;;;;5073449;28;20413;-84
2021/12/14 00:11:36;;;;;;;12.98;8.25;;;8.40;99.90;;;;;;5073305;28;20041;-84
2021/12/14 00:16:54;;;;;;;14.35;8.95;;;8.30;99.90;;;;;;5076943;28;20044;-84
2021/12/14 00:19:20;;;;;;;15.88;8.95;;;8.30;99.90;;;;;;5063668;28;20032;-84
2021/12/14 00:21:51;;;;;;;13.27;8.25;;;8.30;99.90;;;;;;5064804;28;20506;-84
2021/12/14 00:24:18;;;;;;;15.77;9.90;;;8.30;99.90;;;;;;5067541;28;20524;-84
2021/12/14 00:26:51;;;;;;;14.15;9.40;;;8.30;99.90;;;;;;5076160;28;20036;-84
2021/12/14 00:29:20;;;;;;;13.85;8.70;;;8.30;99.90;;;;;;5078325;28;20039;-82
2021/12/14 00:31:48;;;;;;;14.20;8.45;;;8.40;99.90;;;;;;5073981;28;20040;-83
2021/12/14 00:34:22;;;;;;;14.00;8.15;;;8.40;99.90;;;;;;5073613;28;20040;-83
2021/12/14 00:36:48;;;;;;;14.77;8.10;;;8.30;99.90;;;;;;5069477;28;20032;-84
2021/12/14 00:39:14;;;;;;;13.57;8.50;;;8.40;99.90;;;;;;5072197;28;20055;-81
2021/12/14 00:41:42;;;;;;;16.50;8.13;;;8.40;99.90;;;;;;5070657;28;20374;-82
2021/12/14 00:44:09;;;;;;;14.45;8.73;;;8.40;99.90;;;;;;5075100;28;20047;-83
2021/12/14 00:46:36;;;;;;;14.27;8.75;;;8.30;99.90;;;;;;5077586;28;20052;-83
2021/12/14 00:49:04;;;;;;;12.60;8.38;;;8.30;99.90;;;;;;5057244;28;20052;-84
2021/12/14 00:51:30;;;;;;;13.90;8.93;;;8.30;99.90;;;;;;5075450;28;20040;-84
2021/12/14 00:53:59;;;;;;;13.98;8.75;;;8.40;99.90;;;;;;5070874;28;20075;-84
2021/12/14 00:56:24;;;;;;;13.02;8.88;;;8.40;99.90;;;;;;5074631;28;20039;-84
2021/12/14 00:58:50;;;;;;;14.95;9.73;;;8.30;99.90;;;;;;5075197;28;20390;-84
2021/12/14 01:01:21;;;;;;;15.50;8.98;;;8.30;99.90;;;;;;5060850;28;20034;-84
2021/12/14 01:03:51;;;;;;;14.75;8.32;;;8.40;99.90;;;;;;5060248;28;20040;-84
2021/12/14 01:06:17;;;;;;;15.45;9.10;;;8.30;99.90;;;;;;5082504;28;20108;-84
2021/12/14 01:08:45;;;;;;;16.73;8.60;;;8.30;99.90;;;;;;5079271;28;20055;-84
2021/12/14 01:11:17;;;;;;;12.30;8.05;;;8.30;99.90;;;;;;5073528;28;20538;-84
2021/12/14 01:13:52;;;;;;;;;;;8.30;99.90;;;;;;5073382;28;20481;-84
2021/12/14 01:16:32;;;;;;;14.50;8.98;;;8.30;99.90;;;;;;5074864;28;19920;-84
2021/12/14 01:19:13;;;;;;;13.73;8.32;;;8.30;99.90;;;;;;5057705;28;20546;-84
2021/12/14 01:21:59;;;;;;;18.42;9.05;;;8.30;99.90;;;;;;5091837;28;20127;-83
2021/12/14 01:27:16;;;;;;;16.17;8.93;;;8.20;99.90;;;;;;5079220;28;20524;-84
2021/12/14 01:29:43;;;;;;;18.33;8.55;;;8.20;99.90;;;;;;5079525;28;20036;-84
2021/12/14 01:32:10;;;;;;;15.20;8.73;;;8.20;99.90;;;;;;5085074;28;20570;-84
2021/12/14 01:34:37;;;;;;;18.50;9.82;;;8.20;99.90;;;;;;5075946;28;20119;-84
2021/12/14 01:37:09;;;;;;;16.05;9.68;;;8.20;99.90;;;;;;5077899;28;20436;-84
2021/12/14 01:40:01;;;;;;;16.05;9.95;;;8.30;99.90;;;;;;5072333;28;20105;-84
2021/12/14 01:42:38;;;;;;;17.05;9.10;;;8.20;99.90;;;;;;5090671;28;20025;-83
2021/12/14 01:45:17;;;;;;;15.13;8.30;;;8.20;99.90;;;;;;5084774;28;20044;-84
2021/12/14 01:47:48;;;;;;;14.07;8.65;;;8.20;99.90;;;;;;5078695;28;20453;-84
2021/12/14 01:50:22;;;;;;;14.95;9.57;;;8.20;99.90;;;;;;5064631;28;20130;-84
2021/12/14 01:52:48;;;;;;;20.70;9.82;;;8.20;99.90;;;;;;5083363;28;20054;-84
2021/12/14 01:55:20;;;;;;;16.17;9.65;;;8.20;99.90;;;;;;5065457;28;20114;-84
2021/12/14 01:57:46;;;;;;;16.85;10.25;;;8.20;99.90;;;;;;5074168;28;20210;-85
2021/12/14 02:00:20;;;;;;;18.02;9.90;;;8.20;99.90;;;;;;5070631;28;20043;-84
2021/12/14 02:02:47;;;;;;;18.38;9.95;;;8.20;99.90;;;;;;5077784;28;20086;-84
2021/12/14 02:05:47;;;;;;;17.60;11.05;;;8.20;99.90;;;;;;5081052;28;20585;-84
2021/12/14 02:08:24;;;;;;;21.27;10.35;;;8.20;99.90;;;;;;5068142;28;20506;-84
2021/12/14 02:10:51;;;;;;;17.65;11.07;;;8.20;99.90;;;;;;5079317;28;20067;-84
2021/12/14 02:13:36;;;;;;;23.77;11.73;;;8.20;99.90;;;;;;5081263;28;20040;-84
2021/12/14 02:16:05;;;;;;;18.58;11.10;;;8.20;99.90;;;;;;5073273;28;20127;-84
2021/12/14 02:18:32;;;;;;;19.73;11.30;;;8.20;99.90;;;;;;5066301;28;20478;-84
2021/12/14 02:21:10;;;;;;;22.60;10.57;;;8.20;99.90;;;;;;5072319;28;20047;-83
2021/12/14 02:23:40;;;;;;;22.38;11.85;;;8.20;99.90;;;;;;5075961;28;20040;-83
2021/12/14 02:26:10;;;;;;;22.23;11.70;;;8.20;99.90;;;;;;5069835;28;20066;-84
2021/12/14 02:28:37;;;;;;;22.80;12.93;;;8.20;99.90;;;;;;5082056;28;20186;-85
2021/12/14 02:31:07;;;;;;;22.30;12.18;;;8.20;99.90;;;;;;5062777;28;20086;-84
2021/12/14 02:33:38;;;;;;;22.20;13.23;;;8.20;99.90;;;;;;5066019;28;20074;-83
2021/12/14 02:36:09;;;;;;;21.80;12.30;;;8.20;99.90;;;;;;5081703;28;20121;-84
2021/12/14 02:38:41;;;;;;;22.42;12.65;;;8.20;99.90;;;;;;5084197;28;20111;-85
2021/12/14 02:41:07;;;;;;;22.08;12.18;;;8.20;99.90;;;;;;5069862;28;20044;-84
2021/12/14 02:43:47;;;;;;;21.98;13.13;;;8.20;99.90;;;;;;5078309;28;20142;-84
2021/12/14 02:46:38;;;;;;;24.17;13.18;;;8.20;99.90;;;;;;5079952;28;20047;-84
2021/12/14 02:49:08;;;;;;;22.40;12.75;;;8.20;99.90;;;;;;5070939;28;20131;-84
2021/12/14 02:51:38;;;;;;;21.50;12.50;;;8.20;99.90;;;;;;5068839;28;20105;-84
2021/12/14 02:54:08;;;;;;;23.02;13.52;;;8.20;99.90;;;;;;5066468;28;20493;-84
2021/12/14 02:56:36;;;;;;;24.42;13.25;;;8.20;99.90;;;;;;5072825;28;20119;-84
2021/12/14 02:59:27;;;;;;;22.40;12.70;;;8.20;99.90;;;;;;5074779;28;20401;-84
2021/12/14 03:01:58;;;;;;;24.42;12.68;;;8.20;99.90;;;;;;5069565;28;20045;-84
2021/12/14 03:04:25;;;;;;;22.92;13.98;;;8.20;99.90;;;;;;5083485;28;20032;-84
2021/12/14 03:06:58;;;;;;;25.13;14.77;;;8.20;99.90;;;;;;5083201;28;20040;-84
2021/12/14 03:12:18;;;;;;;;;;;8.20;99.90;;;;;;5075434;28;20055;-84
2021/12/14 03:15:16;;;;;;;23.25;13.32;;;8.10;99.90;;;;;;5071217;28;19920;-84
2021/12/14 03:17:44;;;;;;;24.23;12.88;;;8.10;99.90;;;;;;5066639;28;20043;-84
2021/12/14 03:20:17;;;;;;;23.13;13.90;;;8.10;99.90;;;;;;5072541;28;20051;-84
2021/12/14 03:22:58;;;;;;;25.10;13.85;;;8.10;99.90;;;;;;5082905;28;20074;-84
2021/12/14 03:25:24;;;;;;;25.48;14.35;;;8.10;99.90;;;;;;5077397;28;20040;-84
2021/12/14 03:27:51;;;;;;;24.50;14.00;;;8.10;99.90;;;;;;5079333;28;20075;-84
2021/12/14 03:30:46;;;;;;;25.15;15.05;;;8.10;99.90;;;;;;5077193;28;20040;-84
2021/12/14 03:33:18;;;;;;;25.17;14.68;;;8.10;99.90;;;;;;5059040;28;20049;-83
2021/12/14 03:35:49;;;;;;;24.25;14.30;;;8.10;99.90;;;;;;5064299;28;20562;-84
2021/12/14 03:38:19;;;;;;;25.88;14.38;;;8.10;99.90;;;;;;5076771;28;20032;-84
2021/12/14 03:41:00;;;;;;;27.20;14.48;;;8.10;99.90;;;;;;5085609;28;20480;-84
2021/12/14 03:43:27;;;;;;;26.25;15.32;;;8.10;99.90;;;;;;5074667;28;20102;-84
2021/12/14 03:45:53;;;;;;;26.40;13.52;;;8.10;99.90;;;;;;5074876;28;20126;-84
2021/12/14 03:48:22;;;;;;;26.73;14.57;;;8.10;99.90;;;;;;5069133;28;20521;-84
2021/12/14 03:50:48;;;;;;;25.75;15.20;;;8.10;99.90;;;;;;5078934;28;20789;-84
2021/12/14 03:53:18;;;;;;;24.45;15.23;;;8.10;99.90;;;;;;5079137;28;20047;-84
2021/12/14 03:55:48;;;;;;;25.92;15.45;;;8.10;99.90;;;;;;5065961;28;20117;-84
2021/12/14 03:58:17;;;;;;;26.10;15.07;;;8.10;99.90;;;;;;5068198;28;20079;-84
2021/12/14 04:00:51;;;;;;;25.52;14.75;;;8.10;99.90;;;;;;5076596;28;20044;-84
2021/12/14 04:03:18;;;;;;;25.63;15.43;;;8.10;99.90;;;;;;5074754;28;20044;-85
2021/12/14 04:05:45;;;;;;;28.38;15.55;;;8.10;99.90;;;;;;5064786;28;20496;-84
2021/12/14 04:08:12;;;;;;;25.15;15.13;;;8.10;99.90;;;;;;5071345;28;20036;-84
2021/12/14 04:10:41;;;;;;;27.30;15.30;;;8.10;99.90;;;;;;5062672;28;20438;-84
2021/12/14 04:13:08;;;;;;;25.40;14.65;;;8.10;99.90;;;;;;5082431;28;20435;-84
2021/12/14 04:15:34;;;;;;;26.98;15.07;;;8.00;99.90;;;;;;5063737;28;20123;-84
2021/12/14 04:18:00;;;;;;;27.20;15.93;;;8.00;99.90;;;;;;5080233;28;20046;-84
2021/12/14 04:20:36;;;;;;;24.00;14.75;;;8.00;99.90;;;;;;5094790;28;20115;-84
2021/12/14 04:23:07;;;;;;;23.63;14.75;;;7.90;99.90;;;;;;5078704;28;20496;-84
2021/12/14 04:25:34;;;;;;;25.73;14.82;;;7.90;99.90;;;;;;5079230;28;20512;-84
2021/12/14 04:28:04;;;;;;;26.83;14.82;;;7.90;99.90;;;;;;5078800;28;20061;-84
2021/12/14 04:30:30;;;;;;;28.35;16.20;;;7.90;99.90;;;;;;5063293;28;20063;-84
2021/12/14 04:33:00;;;;;;;28.17;15.27;;;7.80;99.90;;;;;;5075413;28;20817;-85
2021/12/14 04:35:26;;;;;;;26.98;15.30;;;7.80;99.90;;;;;;5057863;28;20477;-84
2021/12/14 04:37:57;;;;;;;27.52;16.30;;;7.90;99.90;;;;;;5065450;28;20063;-84
2021/12/14 04:51:58;;;;;;;26.98;16.10;;;7.90;99.90;;;;;;5070102;28;20051;-84
2021/12/14 04:54:44;;;;;;;27.60;16.45;;;7.90;99.90;;;;;;5073185;28;20154;-84
2021/12/14 04:57:31;;;;;;;27.10;14.77;;;7.90;99.90;;;;;;5077310;28;20051;-84
2021/12/14 05:00:14;;;;;;;28.60;16.15;;;7.90;99.90;;;;;;5069055;28;20040;-83
2021/12/14 05:02:39;;;;;;;30.67;18.00;;;7.90;99.90;;;;;;5077813;28;20020;-83
2021/12/14 05:05:06;;;;;;;29.67;17.77;;;7.90;99.90;;;;;;5096341;28;20127;-84
2021/12/14 05:09:59;;;;;;;29.38;16.92;;;7.90;99.90;;;;;;5078978;28;20036;-84
2021/12/14 05:12:31;;;;;;;28.95;17.25;;;8.00;99.90;;;;;;5083151;28;20090;-84
2021/12/14 05:15:00;;;;;;;33.25;18.00;;;8.00;99.90;;;;;;5065103;28;20035;-84
2021/12/14 05:17:32;;;;;;;31.73;17.33;;;8.00;99.90;;;;;;5069137;28;20055;-84
2021/12/14 05:19:58;;;;;;;29.27;16.97;;;7.90;99.90;;;;;;5076961;28;20040;-84
2021/12/14 05:22:31;;;;;;;30.95;16.30;;;8.00;99.90;;;;;;5081671;28;20515;-84
2021/12/14 05:25:02;;;;;;;31.55;18.17;;;7.90;99.90;;;;;;5073012;28;20048;-83
2021/12/14 05:27:38;;;;;;;32.40;19.20;;;7.90;99.90;;;;;;5078321;28;20044;-84
2021/12/14 05:30:30;;;;;;;31.48;17.48;;;7.90;99.90;;;;;;5074797;28;20523;-84
2021/12/14 05:32:59;;;;;;;31.47;17.00;;;7.90;99.90;;;;;;5063947;28;20037;-85
2021/12/14 05:35:25;;;;;;;32.90;18.33;;;7.90;99.90;;;;;;5083225;28;20489;-83
2021/12/14 05:37:54;;;;;;;31.80;18.52;;;7.90;99.90;;;;;;5067099;28;20043;-84
2021/12/14 05:40:39;;;;;;;38.75;20.20;;;7.90;99.90;;;;;;5071363;28;20060;-84
2021/12/14 05:43:13;;;;;;;32.25;17.60;;;7.90;99.90;;;;;;5074789;28;20046;-84
2021/12/14 05:45:42;;;;;;;33.10;18.60;;;7.90;99.90;;;;;;5056638;28;20043;-84
2021/12/14 05:48:10;;;;;;;34.38;20.40;;;7.90;99.90;;;;;;5074175;28;20054;-84
2021/12/14 05:50:50;;;;;;;30.00;17.90;;;8.00;99.90;;;;;;5085705;28;20043;-84
2021/12/14 05:53:20;;;;;;;31.55;17.90;;;8.00;99.90;;;;;;5074502;28;20131;-84
2021/12/14 05:55:47;;;;;;;30.85;18.02;;;7.90;99.90;;;;;;5074447;28;20040;-84
2021/12/14 05:58:16;;;;;;;36.95;19.27;;;8.00;99.90;;;;;;5080179;28;20491;-84
2021/12/14 06:00:46;;;;;;;32.40;17.75;;;8.00;99.90;;;;;;5057161;28;20052;-84
2021/12/14 06:03:18;;;;;;;33.05;20.25;;;8.00;99.90;;;;;;5066072;28;20044;-84
2021/12/14 06:05:44;;;;;;;32.30;18.00;;;8.00;99.90;;;;;;5065663;28;20126;-84
2021/12/14 06:08:18;;;;;;;34.95;18.45;;;8.00;99.90;;;;;;5071995;28;20104;-84
2021/12/14 06:10:43;;;;;;;34.33;18.48;;;7.90;99.90;;;;;;5080619;28;20123;-84
2021/12/14 06:13:09;;;;;;;33.38;19.88;;;7.90;99.90;;;;;;5070448;28;20123;-84
2021/12/14 06:15:36;;;;;;;35.97;19.33;;;7.90;99.90;;;;;;5067291;28;20041;-84
2021/12/14 06:18:02;;;;;;;34.97;19.73;;;7.90;99.90;;;;;;5072206;28;20100;-84
2021/12/14 06:20:28;;;;;;;38.10;20.73;;;7.90;99.90;;;;;;5065152;28;20036;-84
2021/12/14 06:22:54;;;;;;;36.28;20.48;;;8.00;99.90;;;;;;5070767;28;20047;-84
2021/12/14 06:25:24;;;;;;;33.95;18.63;;;8.00;99.90;;;;;;5076242;28;20114;-84
2021/12/14 06:27:53;;;;;;;36.22;19.30;;;8.00;99.90;;;;;;5080916;28;20031;-83
2021/12/14 06:30:27;;;;;;;34.90;18.95;;;8.00;99.90;;;;;;5077539;28;20053;-84
2021/12/14 06:33:01;;;;;;;36.88;21.45;;;8.00;99.90;;;;;;5070522;28;20032;-84
2021/12/14 06:35:41;;;;;;;37.95;20.23;;;8.00;99.90;;;;;;5071539;28;20852;-84
2021/12/14 06:38:29;;;;;;;37.85;20.73;;;8.00;99.90;;;;;;5073506;28;20032;-83
2021/12/14 06:40:54;;;;;;;39.17;21.38;;;8.00;99.90;;;;;;5080561;28;20036;-84
2021/12/14 06:43:44;;;;;;;38.08;22.23;;;8.00;99.90;;;;;;5071694;28;20424;-84
2021/12/14 06:46:15;;;;;;;38.15;20.77;;;8.00;99.90;;;;;;5074422;28;20406;-84
2021/12/14 06:48:45;;;;;;;32.00;17.70;;;8.00;99.90;;;;;;5071826;28;20529;-85
2021/12/14 06:51:20;;;;;;;39.63;22.95;;;8.00;99.90;;;;;;5043328;28;20502;-84
2021/12/14 06:53:51;;;;;;;37.45;20.13;;;8.00;99.90;;;;;;5071734;28;20039;-84
2021/12/14 06:56:20;;;;;;;40.83;22.13;;;8.00;99.90;;;;;;5066558;28;20067;-84
2021/12/14 06:59:07;;;;;;;38.85;21.17;;;8.00;99.90;;;;;;5084135;28;20050;-85
2021/12/14 07:01:40;;;;;;;43.17;22.20;;;8.00;99.90;;;;;;5067408;28;20033;-84
2021/12/14 07:04:09;;;;;;;;;;;8.00;99.90;;;;;;5066883;28;20732;-84
2021/12/14 07:06:56;;;;;;;35.90;19.60;;;8.00;99.90;;;;;;5065591;28;19920;-84
2021/12/14 07:09:33;;;;;;;40.30;21.27;;;8.00;99.90;;;;;;5074125;28;20048;-83
2021/12/14 07:12:01;;;;;;;37.08;20.50;;;8.00;99.90;;;;;;5075703;28;20086;-83
2021/12/14 07:14:26;;;;;;;40.85;20.92;;;8.00;99.90;;;;;;5075825;28;20082;-83
2021/12/14 07:16:54;;;;;;;38.33;21.23;;;8.00;99.90;;;;;;5072700;28;20064;-83
2021/12/14 07:19:40;;;;;;;37.08;20.95;;;8.00;99.90;;;;;;5075749;28;20128;-84
2021/12/14 07:22:06;;;;;;;38.60;21.30;;;8.00;99.90;;;;;;5070772;28;20064;-83
2021/12/14 07:24:35;;;;;;;36.70;21.42;;;8.00;99.90;;;;;;5077162;28;20082;-83
2021/12/14 07:27:16;;;;;;;38.08;20.85;;;7.90;99.90;;;;;;5074344;28;20172;-83
2021/12/14 07:29:42;;;;;;;35.22;20.40;;;7.90;99.90;;;;;;5072469;28;20279;-83
2021/12/14 07:32:08;;;;;;;38.65;22.65;;;7.90;99.90;;;;;;5053889;28;20036;-83
2021/12/14 07:34:34;;;;;;;36.60;19.65;;;7.90;99.90;;;;;;5073702;28;20039;-83
2021/12/14 07:36:59;;;;;;;37.15;21.92;;;7.90;99.90;;;;;;5080931;28;20118;-84
2021/12/14 07:39:25;;;;;;;37.70;21.40;;;7.90;99.90;;;;;;5086301;28;20127;-84
2021/12/14 07:41:54;;;;;;;38.55;19.58;;;7.90;99.90;;;;;;5074810;28;20334;-84
2021/12/14 07:44:23;;;;;;;36.33;19.58;;;7.90;99.90;;;;;;5089654;28;20052;-84
2021/12/14 07:47:19;;;;;;;36.63;20.08;;;7.90;99.90;;;;;;5076661;28;20040;-84
2021/12/14 07:49:54;;;;;;;39.00;20.73;;;7.90;99.90;;;;;;5062504;28;20501;-84
2021/12/14 07:52:24;;;;;;;36.70;21.55;;;7.90;99.90;;;;;;5066588;28;20076;-84
2021/12/14 07:54:58;;;;;;;38.03;20.70;;;7.90;99.90;;;;;;5069541;28;20059;-84
2021/12/14 07:57:27;;;;;;;37.90;21.17;;;7.90;99.90;;;;;;5083558;28;20043;-84
2021/12/14 07:59:54;;;;;;;37.50;19.80;;;7.90;99.90;;;;;;5080856;28;20043;-84
2021/12/14 08:02:20;;;;;;;37.22;20.85;;;7.80;99.90;;;;;;5077838;28;20044;-84
2021/12/14 08:04:52;;;;;;;37.22;21.00;;;7.90;99.90;;;;;;5072597;28;20047;-83
2021/12/14 08:07:39;;;;;;;38.80;22.25;;;7.90;99.90;;;;;;5073889;28;20559;-83
2021/12/14 08:10:18;;;;;;;36.65;20.77;;;7.90;99.90;;;;;;5066091;28;20066;-83
2021/12/14 08:12:48;;;;;;;39.13;21.25;;;7.90;99.90;;;;;;5066136;28;20557;-83
2021/12/14 08:15:31;;;;;;;41.90;22.48;;;7.90;99.90;;;;;;5074603;28;20040;-83
2021/12/14 08:18:19;;;;;;;40.53;20.92;;;7.90;99.90;;;;;;5075544;28;20153;-83
2021/12/14 08:21:08;;;;;;;36.15;19.20;;;7.90;99.90;;;;;;5049707;28;20142;-83
2021/12/14 08:23:48;;;;;;;34.47;19.45;;;7.90;99.90;;;;;;5063202;28;20047;-83
2021/12/14 08:26:21;;;;;;;36.42;20.25;;;7.90;99.90;;;;;;5074184;28;20358;-84
2021/12/14 08:28:57;;;;;;;33.40;18.92;;;7.90;99.90;;;;;;5062880;28;20397;-84
2021/12/14 08:31:30;;;;;;;37.40;20.75;;;7.90;99.90;;;;;;5066391;28;20104;-84
2021/12/14 08:34:21;;;;;;;37.25;20.85;;;7.90;99.90;;;;;;5059375;28;20047;-84
2021/12/14 08:36:51;;;;;;;36.95;18.98;;;8.00;99.90;;;;;;5062743;28;20115;-84
2021/12/14 08:39:23;;;;;;;36.20;20.52;;;8.00;99.90;;;;;;5074574;28;20040;-84
2021/12/14 08:41:55;;;;;;;35.45;19.73;;;8.10;99.90;;;;;;5068676;28;20040;-84
2021/12/14 08:44:37;;;;;;;38.58;20.98;;;8.10;99.90;;;;;;5065069;28;20059;-84
2021/12/14 08:47:08;;;;;;;37.28;20.15;;;8.10;99.90;;;;;;5078927;28;20412;-84
2021/12/14 08:49:35;;;;;;;35.55;19.05;;;8.10;99.90;;;;;;5070390;28;20056;-84
2021/12/14 08:52:01;;;;;;;35.58;20.25;;;8.10;99.90;;;;;;5077140;28;20036;-84
2021/12/14 08:54:29;;;;;;;31.60;17.25;;;8.10;99.90;;;;;;5075492;28;20412;-84
2021/12/14 08:57:02;;;;;;;34.38;19.85;;;8.10;99.90;;;;;;5071412;28;20483;-84
2021/12/14 08:59:29;;;;;;;33.97;20.17;;;8.10;99.90;;;;;;5058420;28;20033;-84
2021/12/14 09:01:56;;;;;;;37.17;18.75;;;8.20;99.90;;;;;;5079793;28;20122;-84
2021/12/14 09:04:38;;;;;;;31.95;18.63;;;8.20;99.90;;;;;;5071555;28;20044;-84
2021/12/14 09:07:17;;;;;;;32.58;18.35;;;8.20;99.90;;;;;;5055734;28;20095;-84
2021/12/14 09:09:44;;;;;;;32.00;17.13;;;8.20;99.90;;;;;;5074502;28;20059;-84
2021/12/14 09:12:17;;;;;;;31.13;17.50;;;8.20;99.90;;;;;;5066683;28;20569;-84
2021/12/14 09:14:46;;;;;;;31.23;17.85;;;8.20;99.90;;;;;;5069865;28;20036;-84
2021/12/14 09:17:14;;;;;;;30.23;17.70;;;8.20;99.90;;;;;;5070572;28;20028;-84
2021/12/14 09:19:43;;;;;;;30.88;19.80;;;8.20;99.90;;;;;;5079077;28;20035;-84
2021/12/14 09:22:29;;;;;;;31.67;17.83;;;8.20;99.90;;;;;;5071165;28;20458;-84
2021/12/14 09:24:56;;;;;;;30.13;17.02;;;8.30;99.90;;;;;;5069655;28;20032;-84
2021/12/14 09:27:25;;;;;;;32.22;18.65;;;8.30;99.90;;;;;;5071322;28;20048;-84
2021/12/14 09:29:52;;;;;;;32.10;17.63;;;8.30;99.90;;;;;;5065276;28;20555;-84
2021/12/14 09:32:24;;;;;;;30.95;17.48;;;8.30;99.90;;;;;;5062837;28;20468;-84
2021/12/14 09:34:51;;;;;;;33.20;17.85;;;8.30;99.90;;;;;;5071943;28;20048;-83
2021/12/14 09:37:17;;;;;;;29.92;17.35;;;8.30;99.90;;;;;;5067204;28;20107;-83
2021/12/14 09:39:48;;;;;;;33.17;18.17;;;8.40;99.90;;;;;;5071774;28;20112;-83
2021/12/14 09:42:18;;;;;;;28.30;16.83;;;8.40;99.90;;;;;;5085691;28;20056;-83
2021/12/14 09:44:46;;;;;;;30.58;16.85;;;8.40;99.90;;;;;;5075378;28;20048;-83
2021/12/14 09:47:18;;;;;;;31.67;16.92;;;8.40;99.90;;;;;;5079314;28;20044;-83
2021/12/14 09:49:46;;;;;;;30.13;16.58;;;8.40;99.90;;;;;;5069943;28;20139;-83
2021/12/14 09:52:20;;;;;;;24.80;15.05;;;8.50;99.90;;;;;;5072530;28;20050;-83
2021/12/14 09:54:48;;;;;;;30.60;17.63;;;8.40;99.90;;;;;;5064647;28;20047;-83
2021/12/14 09:57:23;;;;;;;31.38;16.67;;;8.50;99.90;;;;;;5078286;28;20037;-83
2021/12/14 09:59:50;;;;;;;33.92;17.73;;;8.50;99.90;;;;;;5069963;28;20040;-84
2021/12/14 10:02:26;;;;;;;28.00;16.48;;;8.50;99.90;;;;;;5076761;28;20044;-84
2021/12/14 10:04:55;;;;;;;32.10;18.15;;;8.50;99.90;;;;;;5071522;28;20458;-84
2021/12/14 10:07:23;;;;;;;32.70;17.48;;;8.50;99.90;;;;;;5063827;28;20048;-83
2021/12/14 10:09:51;;;;;;;32.28;18.77;;;8.50;99.90;;;;;;5065602;28;20089;-84
2021/12/14 10:15:14;;;;;;;30.25;16.48;;;8.50;99.90;;;;;;5076632;28;20040;-83
2021/12/14 10:17:42;;;;;;;30.70;16.38;;;8.50;99.90;;;;;;5081295;28;20108;-83
2021/12/14 10:20:13;;;;;;;32.63;16.60;;;8.50;99.90;;;;;;5059444;28;20396;-84
2021/12/14 10:22:39;;;;;;;31.98;16.85;;;8.50;99.90;;;;;;5079316;28;20342;-84
2021/12/14 10:25:10;;;;;;;33.40;16.77;;;8.50;99.90;;;;;;5072974;28;20082;-83
2021/12/14 10:27:38;;;;;;;31.17;16.97;;;8.50;99.90;;;;;;5077797;28;20051;-83
2021/12/14 10:30:09;;;;;;;34.38;17.83;;;8.60;99.90;;;;;;5079232;28;20036;-83
2021/12/14 10:32:36;;;;;;;35.17;16.70;;;8.50;99.90;;;;;;5076821;28;20051;-83
2021/12/14 10:35:10;;;;;;;31.55;17.65;;;8.50;99.90;;;;;;5078920;28;20037;-83
2021/12/14 10:37:59;;;;;;;31.88;16.98;;;8.50;99.90;;;;;;5080459;28;20052;-83
2021/12/14 10:43:21;;;;;;;28.63;15.52;;;8.50;99.90;;;;;;5078405;28;20330;-84
2021/12/14 10:45:52;;;;;;;32.97;17.23;;;8.50;99.90;;;;;;5058766;28;20040;-82
2021/12/14 10:48:21;;;;;;;34.40;17.17;;;8.50;99.90;;;;;;5066626;28;20514;-82
2021/12/14 10:50:49;;;;;;;33.15;16.92;;;8.50;99.90;;;;;;5070545;28;20130;-82
2021/12/14 10:53:19;;;;;;;33.58;16.83;;;8.50;99.90;;;;;;5066015;28;20043;-82
2021/12/14 10:56:13;;;;;;;37.70;17.13;;;8.50;99.90;;;;;;5072170;28;20036;-84
2021/12/14 10:58:40;;;;;;;37.92;17.85;;;8.50;99.90;;;;;;5065680;28;20549;-82
2021/12/14 11:01:10;;;;;;;31.52;17.00;;;8.50;99.90;;;;;;5083825;28;20070;-82
2021/12/14 11:03:42;;;;;;;37.03;18.30;;;8.50;99.90;;;;;;5060546;28;20047;-82
2021/12/14 11:06:12;;;;;;;39.80;20.10;;;8.50;99.90;;;;;;5073860;28;20041;-82
2021/12/14 11:08:57;;;;;;;41.28;19.10;;;8.50;99.90;;;;;;5071159;28;20079;-82
2021/12/14 11:11:37;;;;;;;39.35;18.25;;;8.50;99.90;;;;;;5077514;28;20067;-82
2021/12/14 11:14:11;;;;;;;38.78;18.83;;;8.50;99.90;;;;;;5078776;28;20039;-82
2021/12/14 11:19:33;;;;;;;42.70;18.83;;;8.50;99.90;;;;;;5075028;28;20483;-82
2021/12/14 11:22:17;;;;;;;43.10;18.67;;;8.50;99.90;;;;;;5079389;28;20107;-82
2021/12/14 11:24:47;;;;;;;49.47;18.55;;;8.50;99.90;;;;;;5064133;28;20382;-82
2021/12/14 11:27:25;;;;;;;43.08;19.02;;;8.50;99.90;;;;;;5077858;28;20036;-82
2021/12/14 11:30:07;;;;;;;44.90;19.23;;;8.50;99.90;;;;;;5074650;28;20036;-82
2021/12/14 11:32:34;;;;;;;48.40;20.75;;;8.50;99.90;;;;;;5073446;28;20506;-82
2021/12/14 11:35:01;;;;;;;43.83;18.98;;;8.50;99.90;;;;;;5056056;28;20051;-82
2021/12/14 11:37:34;;;;;;;36.67;17.48;;;8.50;99.90;;;;;;5074760;28;20029;-82
2021/12/14 11:40:01;;;;;;;39.75;18.55;;;8.50;99.90;;;;;;5077359;28;20036;-82
2021/12/14 11:42:28;;;;;;;47.97;19.60;;;8.50;99.90;;;;;;5074221;28;20048;-82
2021/12/14 11:44:58;;;;;;;46.20;19.20;;;8.50;99.90;;;;;;5071912;28;20072;-81
2021/12/14 11:47:42;;;;;;;39.55;17.15;;;8.50;99.90;;;;;;5073764;28;20055;-81
2021/12/14 11:50:10;;;;;;;42.42;17.27;;;8.50;99.90;;;;;;5073741;28;20060;-82
2021/12/14 11:52:59;;;;;;;42.15;18.73;;;8.50;99.90;;;;;;5072473;28;20105;-82
2021/12/14 11:55:50;;;;;;;41.42;17.98;;;8.60;99.90;;;;;;5069218;28;20051;-82
2021/12/14 11:58:38;;;;;;;41.15;17.73;;;8.60;99.90;;;;;;5071913;28;20037;-82
2021/12/14 12:01:19;;;;;;;36.05;16.75;;;8.60;99.90;;;;;;5064603;28;20095;-82
2021/12/14 12:04:12;;;;;;;43.15;17.50;;;8.60;99.90;;;;;;5074549;28;20179;-81
2021/12/14 12:09:29;;;;;;;42.55;17.17;;;8.60;99.90;;;;;;5074223;28;20586;-82
2021/12/14 12:12:04;;;;;;;38.90;16.77;;;8.70;99.90;;;;;;5072451;28;20425;-82
2021/12/14 12:14:43;;;;;;;40.45;18.27;;;8.70;99.90;;;;;;5092371;28;20062;-82
2021/12/14 12:17:41;;;;;;;41.72;18.42;;;8.70;99.90;;;;;;5061838;28;20085;-82
2021/12/14 12:20:13;;;;;;;38.65;17.60;;;8.70;99.90;;;;;;5071411;28;20142;-82
2021/12/14 12:22:53;;;;;;;42.28;18.55;;;8.70;99.90;;;;;;5071496;28;20592;-82
2021/12/14 12:25:33;;;;;;;41.17;18.75;;;8.70;99.90;;;;;;5067215;28;20115;-82
2021/12/14 12:28:14;;;;;;;43.13;19.35;;;8.80;99.90;;;;;;5073482;28;20507;-81
2021/12/14 12:31:00;;;;;;;39.85;18.70;;;8.80;99.90;;;;;;5055831;28;20055;-81
2021/12/14 12:33:32;;;;;;;43.38;18.17;;;8.80;99.90;;;;;;5092526;28;20049;-82
2021/12/14 12:36:20;;;;;;;35.83;17.33;;;8.80;99.90;;;;;;5059176;28;20047;-82
2021/12/14 12:38:52;;;;;;;43.50;19.15;;;8.80;99.90;;;;;;5059878;28;20025;-82
2021/12/14 12:41:27;;;;;;;39.85;18.05;;;8.80;99.90;;;;;;5052950;28;20391;-82
2021/12/14 12:44:19;;;;;;;40.05;18.73;;;8.80;99.90;;;;;;5071637;28;20048;-82
2021/12/14 12:46:57;;;;;;;39.67;17.27;;;8.80;99.90;;;;;;5074886;28;20041;-82
2021/12/14 12:49:25;;;;;;;43.70;18.65;;;8.80;99.90;;;;;;5073289;28;20586;-81
2021/12/14 12:52:01;;;;;;;41.08;19.00;;;8.80;99.90;;;;;;5071044;28;20041;-82
2021/12/14 12:54:37;;;;;;;39.60;18.20;;;8.80;99.90;;;;;;5069968;28;20043;-82
2021/12/14 12:57:36;;;;;;;43.65;19.02;;;8.80;99.90;;;;;;5075956;28;20039;-81
2021/12/14 13:00:17;;;;;;;43.60;18.23;;;8.80;99.90;;;;;;5079302;28;20047;-81
2021/12/14 13:02:54;;;;;;;43.58;18.85;;;8.80;99.90;;;;;;5061558;28;20450;-81
2021/12/14 13:05:20;;;;;;;45.67;19.20;;;8.80;99.90;;;;;;5070663;28;20127;-81
2021/12/14 13:08:16;;;;;;;47.88;19.63;;;8.80;99.90;;;;;;5068221;28;20491;-81
2021/12/14 13:11:21;;;;;;;51.83;20.95;;;8.90;99.90;;;;;;5071321;28;20167;-81
2021/12/14 13:13:48;;;;;;;43.38;19.33;;;8.90;99.90;;;;;;5052323;28;20041;-81
2021/12/14 13:16:22;;;;;;;48.25;19.90;;;8.80;99.90;;;;;;5070773;28;20558;-81
2021/12/14 13:19:13;;;;;;;53.60;20.20;;;8.90;99.90;;;;;;5066867;28;20059;-81
2021/12/14 13:22:02;;;;;;;47.88;19.33;;;8.90;99.90;;;;;;5074149;28;20066;-81
2021/12/14 13:24:38;;;;;;;50.75;20.50;;;8.90;99.90;;;;;;5072641;28;20044;-81
2021/12/14 13:27:10;;;;;;;50.63;20.27;;;8.90;99.90;;;;;;5079413;28;20036;-81
2021/12/14 13:29:48;;;;;;;50.85;19.92;;;8.90;99.90;;;;;;5075052;28;20048;-81
2021/12/14 13:32:35;;;;;;;48.65;20.38;;;8.90;99.90;;;;;;5069263;28;20036;-81
2021/12/14 13:35:06;;;;;;;45.40;19.90;;;9.00;99.90;;;;;;5070270;28;20096;-81
2021/12/14 13:37:45;;;;;;;50.88;19.65;;;9.00;99.90;;;;;;5080055;28;20037;-81
2021/12/14 13:40:17;;;;;;;53.60;21.23;;;8.90;99.90;;;;;;5066322;28;20044;-81
2021/12/14 13:43:22;;;;;;;46.78;20.33;;;9.00;99.90;;;;;;5075886;28;20035;-81